Time;durP1;ratioP1;P1;durP2;ratioP2;P2;SDS_P1;SDS_P2;PMS_P1;PMS_P2;Temp;Humidity;BMP_temperature;BMP_pressure;BME280_temperature;BME280_humidity;BME280_pressure;Samples;Min_cycle;Max_cycle;Signal;HPM_P1;HPM_P2
2024/01/28 00:00:54;;;;;;;53.23;25.53;;;-0.90;99.90;;;;;;5045078;28;20307;-62
2024/01/28 00:03:24;;;;;;;59.43;26.70;;;-0.90;99.90;;;;;;5051563;28;20299;-63
2024/01/28 00:05:52;;;;;;;51.97;26.27;;;-0.80;99.90;;;;;;5055495;28;20242;-63
2024/01/28 00:08:25;;;;;;;56.57;26.33;;;-0.90;99.90;;;;;;5050242;28;20185;-62
2024/01/28 00:10:54;;;;;;;50.07;25.57;;;-0.90;99.90;;;;;;5051951;28;20193;-62
2024/01/28 00:13:24;;;;;;;58.33;26.97;;;-1.00;99.90;;;;;;5051867;28;20212;-62
2024/01/28 00:15:53;;;;;;;51.03;25.93;;;-1.00;99.90;;;;;;5054510;28;20285;-62
2024/01/28 00:18:22;;;;;;;57.53;25.33;;;-1.00;99.90;;;;;;5051539;28;20216;-62
2024/01/28 00:20:52;;;;;;;49.23;24.77;;;-1.00;99.90;;;;;;5048780;28;20283;-62
2024/01/28 00:23:20;;;;;;;51.87;25.20;;;-1.00;99.90;;;;;;5041605;28;20202;-62
2024/01/28 00:25:49;;;;;;;57.57;24.97;;;-1.10;99.90;;;;;;5054734;28;20543;-62
2024/01/28 00:28:17;;;;;;;48.40;25.37;;;-1.10;99.90;;;;;;5053188;28;20341;-62
2024/01/28 00:30:46;;;;;;;52.60;24.67;;;-1.20;99.90;;;;;;5052547;28;20232;-62
2024/01/28 00:33:17;;;;;;;54.40;23.77;;;-1.20;99.90;;;;;;5052752;28;20228;-62
2024/01/28 00:35:46;;;;;;;51.73;24.40;;;-1.20;99.90;;;;;;5054272;28;20312;-62
2024/01/28 00:38:16;;;;;;;48.13;23.83;;;-1.20;99.90;;;;;;5050499;28;20184;-62
2024/01/28 00:40:44;;;;;;;47.70;23.13;;;-1.20;99.90;;;;;;5040835;28;20217;-62
2024/01/28 00:43:12;;;;;;;44.83;23.83;;;-1.20;99.90;;;;;;5052572;28;20332;-62
2024/01/28 00:45:41;;;;;;;54.43;24.60;;;-1.30;99.90;;;;;;5051084;28;20252;-62
2024/01/28 00:48:09;;;;;;;46.90;24.37;;;-1.30;99.90;;;;;;5051885;28;20701;-62
2024/01/28 00:50:38;;;;;;;46.03;23.77;;;-1.20;99.90;;;;;;5053617;28;20243;-62
2024/01/28 00:53:06;;;;;;;50.10;25.07;;;-1.20;99.90;;;;;;5050881;28;20287;-61
2024/01/28 00:55:36;;;;;;;52.93;25.13;;;-1.20;99.90;;;;;;5054192;28;20191;-62
2024/01/28 00:58:04;;;;;;;48.50;24.03;;;-1.30;99.90;;;;;;5048417;28;20694;-62
2024/01/28 01:00:32;;;;;;;54.17;23.60;;;-1.30;99.90;;;;;;5047499;28;20223;-62
2024/01/28 01:03:01;;;;;;;44.53;23.63;;;-1.30;99.90;;;;;;5050940;28;20212;-62
2024/01/28 01:05:29;;;;;;;48.77;23.40;;;-1.30;99.90;;;;;;5050810;28;20274;-62
2024/01/28 01:07:57;;;;;;;48.83;22.87;;;-1.30;99.90;;;;;;5046546;28;20189;-62
2024/01/28 01:10:26;;;;;;;49.67;23.80;;;-1.30;99.90;;;;;;5049159;28;20217;-62
2024/01/28 01:12:56;;;;;;;51.60;24.50;;;-1.40;99.90;;;;;;5051418;28;20221;-62
2024/01/28 01:15:24;;;;;;;55.33;24.77;;;-1.40;99.90;;;;;;5052236;28;20213;-62
2024/01/28 01:17:52;;;;;;;50.60;24.03;;;-1.40;99.90;;;;;;5043561;28;20225;-62
2024/01/28 01:20:21;;;;;;;58.93;26.03;;;-1.30;99.90;;;;;;5041095;28;20592;-62
2024/01/28 01:22:49;;;;;;;54.10;26.07;;;-1.40;99.90;;;;;;5049515;28;20203;-62
2024/01/28 01:25:18;;;;;;;64.40;27.63;;;-1.40;99.90;;;;;;5052148;28;20220;-62
2024/01/28 01:27:49;;;;;;;54.43;26.47;;;-1.40;99.90;;;;;;5047116;28;20247;-62
2024/01/28 01:30:19;;;;;;;55.53;26.13;;;-1.30;99.90;;;;;;5045364;28;20312;-62
2024/01/28 01:32:48;;;;;;;52.57;26.27;;;-1.30;99.90;;;;;;5039979;28;20698;-62
2024/01/28 01:35:16;;;;;;;54.23;26.83;;;-1.30;99.90;;;;;;5046626;28;20276;-63
2024/01/28 01:37:44;;;;;;;55.83;27.23;;;-1.30;99.90;;;;;;5047561;28;20279;-63
2024/01/28 01:40:14;;;;;;;45.00;24.77;;;-1.30;99.90;;;;;;5044401;28;20213;-63
2024/01/28 01:42:43;;;;;;;57.50;25.27;;;-1.40;99.90;;;;;;5043160;28;20318;-63
2024/01/28 01:45:12;;;;;;;57.77;26.83;;;-1.40;99.90;;;;;;5046990;28;20573;-63
2024/01/28 01:47:42;;;;;;;50.13;24.53;;;-1.40;99.90;;;;;;5041008;28;20278;-62
2024/01/28 01:50:12;;;;;;;51.77;24.50;;;-1.50;99.90;;;;;;5049318;28;20788;-62
2024/01/28 01:52:42;;;;;;;45.67;22.37;;;-1.50;99.90;;;;;;5051430;28;20189;-63
2024/01/28 01:55:11;;;;;;;46.77;22.63;;;-1.50;99.90;;;;;;5049156;28;20683;-63
2024/01/28 01:57:42;;;;;;;49.37;23.73;;;-1.40;99.90;;;;;;5042489;28;20221;-63
2024/01/28 02:00:14;;;;;;;54.47;22.93;;;-1.40;99.90;;;;;;5040449;28;20225;-63
2024/01/28 02:02:46;;;;;;;59.83;25.57;;;-1.40;99.90;;;;;;5041735;28;20229;-63
2024/01/28 02:05:15;;;;;;;56.57;26.20;;;-1.40;99.90;;;;;;5048228;28;20545;-63
2024/01/28 02:07:44;;;;;;;73.60;33.93;;;-1.30;99.90;;;;;;5046235;28;20191;-63
2024/01/28 02:10:12;;;;;;;69.27;30.13;;;-1.20;99.90;;;;;;5048391;28;20221;-63
2024/01/28 02:12:43;;;;;;;55.30;30.07;;;-1.00;99.90;;;;;;5046568;28;20216;-63
2024/01/28 02:15:12;;;;;;;61.03;26.87;;;-0.90;99.90;;;;;;5050106;28;20224;-63
2024/01/28 02:17:41;;;;;;;61.27;27.73;;;-0.90;99.90;;;;;;5049064;28;20228;-63
2024/01/28 02:20:12;;;;;;;53.37;25.90;;;-0.90;99.90;;;;;;5045856;28;20197;-62
2024/01/28 02:22:40;;;;;;;49.30;24.20;;;-0.90;99.90;;;;;;5043737;28;20197;-63
2024/01/28 02:25:10;;;;;;;52.03;24.90;;;-1.00;99.90;;;;;;5044505;28;20217;-63
2024/01/28 02:27:40;;;;;;;45.50;23.33;;;-1.10;99.90;;;;;;5053793;28;20299;-62
2024/01/28 02:30:09;;;;;;;44.77;22.80;;;-1.20;99.90;;;;;;5051999;28;20216;-62
2024/01/28 02:32:38;;;;;;;55.30;23.60;;;-1.30;99.90;;;;;;5051976;28;20224;-62
2024/01/28 02:35:07;;;;;;;45.37;23.00;;;-1.40;99.90;;;;;;5043052;28;20197;-61
2024/01/28 02:37:35;;;;;;;54.83;23.33;;;-1.40;99.90;;;;;;5052245;28;20192;-62
2024/01/28 02:40:04;;;;;;;51.37;22.50;;;-1.50;99.90;;;;;;5051089;28;20217;-62
2024/01/28 02:42:33;;;;;;;54.10;23.30;;;-1.50;99.90;;;;;;5035253;28;20225;-62
2024/01/28 02:45:02;;;;;;;42.40;20.83;;;-1.60;99.90;;;;;;5054722;28;20586;-62
2024/01/28 02:47:30;;;;;;;46.17;22.63;;;-1.70;99.90;;;;;;5051140;28;20213;-62
2024/01/28 02:49:58;;;;;;;41.60;21.27;;;-1.70;99.90;;;;;;5049494;28;20304;-62
2024/01/28 02:52:27;;;;;;;45.03;22.63;;;-1.70;99.90;;;;;;5050708;28;20648;-62
2024/01/28 02:54:55;;;;;;;46.33;23.57;;;-1.80;99.90;;;;;;5050217;28;20275;-62
2024/01/28 02:57:23;;;;;;;48.40;23.77;;;-1.80;99.90;;;;;;5047393;28;20220;-62
2024/01/28 02:59:54;;;;;;;48.97;22.83;;;-1.80;99.90;;;;;;5051156;28;20228;-62
2024/01/28 03:02:23;;;;;;;47.37;23.47;;;-1.70;99.90;;;;;;5054946;28;20303;-62
2024/01/28 03:04:51;;;;;;;46.07;22.13;;;-1.70;99.90;;;;;;5049726;28;20189;-62
2024/01/28 03:07:19;;;;;;;54.40;22.80;;;-1.70;99.90;;;;;;5058870;28;20327;-62
2024/01/28 03:09:47;;;;;;;47.87;23.03;;;-1.70;99.90;;;;;;5055545;28;20266;-62
2024/01/28 03:12:17;;;;;;;45.90;22.10;;;-1.60;99.90;;;;;;5069996;28;20229;-62
2024/01/28 03:14:46;;;;;;;52.03;23.10;;;-1.60;99.90;;;;;;5062470;28;20228;-62
2024/01/28 03:17:16;;;;;;;49.43;22.43;;;-1.60;99.90;;;;;;5051683;28;20189;-62
2024/01/28 03:19:44;;;;;;;52.93;22.90;;;-1.60;99.90;;;;;;5053993;28;20697;-62
2024/01/28 03:22:12;;;;;;;52.37;23.70;;;-1.50;99.90;;;;;;5052249;28;20610;-62
2024/01/28 03:24:41;;;;;;;45.73;22.70;;;-1.50;99.90;;;;;;5055404;28;20217;-62
2024/01/28 03:27:09;;;;;;;50.43;23.90;;;-1.50;99.90;;;;;;5055011;28;20209;-62
2024/01/28 03:29:38;;;;;;;48.37;22.27;;;-1.50;99.90;;;;;;5055058;28;20766;-62
2024/01/28 03:32:07;;;;;;;42.10;21.30;;;-1.50;99.90;;;;;;5055208;28;20217;-61
2024/01/28 03:34:36;;;;;;;41.10;21.93;;;-1.50;99.90;;;;;;5055324;28;20188;-62
2024/01/28 03:37:05;;;;;;;45.23;22.03;;;-1.50;99.90;;;;;;5045668;28;20217;-62
2024/01/28 03:39:33;;;;;;;45.30;20.00;;;-1.50;99.90;;;;;;5055118;28;20282;-62
2024/01/28 03:42:01;;;;;;;43.37;21.07;;;-1.50;99.90;;;;;;5068546;28;20311;-62
2024/01/28 03:44:29;;;;;;;36.43;19.70;;;-1.60;99.90;;;;;;5049389;28;20228;-61
2024/01/28 03:46:58;;;;;;;43.93;23.00;;;-1.60;99.90;;;;;;5053354;28;20197;-62
2024/01/28 03:49:27;;;;;;;54.13;21.27;;;-1.60;99.90;;;;;;5053485;28;20863;-62
2024/01/28 03:51:57;;;;;;;42.93;21.07;;;-1.50;99.90;;;;;;5041268;28;20235;-62
2024/01/28 03:54:25;;;;;;;43.20;20.60;;;-1.60;99.90;;;;;;5053777;28;20567;-62
2024/01/28 03:56:54;;;;;;;40.57;20.63;;;-1.50;99.90;;;;;;5049040;28;20229;-62
2024/01/28 03:59:22;;;;;;;40.40;20.93;;;-1.60;99.90;;;;;;5065805;28;20220;-62
2024/01/28 04:01:50;;;;;;;44.93;20.30;;;-1.60;99.90;;;;;;5048441;28;20536;-62
2024/01/28 04:04:19;;;;;;;42.97;19.90;;;-1.60;99.90;;;;;;5044945;28;20220;-62
2024/01/28 04:06:47;;;;;;;39.07;19.77;;;-1.60;99.90;;;;;;5050807;28;20706;-62
2024/01/28 04:09:17;;;;;;;42.63;19.87;;;-1.60;99.90;;;;;;5051641;28;20318;-62
2024/01/28 04:11:46;;;;;;;37.33;19.57;;;-1.60;99.90;;;;;;5051775;28;20299;-62
2024/01/28 04:14:17;;;;;;;35.90;17.57;;;-1.60;99.90;;;;;;5049214;28;20543;-62
2024/01/28 04:16:45;;;;;;;38.47;17.83;;;-1.60;99.90;;;;;;5062485;28;20676;-62
2024/01/28 04:19:13;;;;;;;40.07;15.43;;;-1.50;99.90;;;;;;5054622;28;20593;-62
2024/01/28 04:21:42;;;;;;;34.57;14.67;;;-1.40;99.90;;;;;;5054643;28;20251;-62
2024/01/28 04:24:11;;;;;;;28.93;13.93;;;-1.30;99.90;;;;;;5052021;28;20228;-62
2024/01/28 04:26:41;;;;;;;38.40;13.83;;;-1.20;99.90;;;;;;5052823;28;20217;-61
2024/01/28 04:29:09;;;;;;;27.27;12.67;;;-1.20;99.90;;;;;;5053839;28;20235;-62
2024/01/28 04:31:42;;;;;;;26.20;12.33;;;-1.20;99.90;;;;;;5054954;28;20659;-62
2024/01/28 04:34:14;;;;;;;24.77;11.30;;;-1.10;99.90;;;;;;5048756;28;20271;-62
2024/01/28 04:36:42;;;;;;;25.60;12.67;;;-1.00;99.90;;;;;;5044763;28;20221;-62
2024/01/28 04:39:10;;;;;;;22.30;11.77;;;-1.10;99.90;;;;;;5054152;28;20251;-62
2024/01/28 04:41:40;;;;;;;25.13;12.80;;;-1.20;99.90;;;;;;5051207;28;20698;-62
2024/01/28 04:44:09;;;;;;;25.37;11.70;;;-1.20;99.90;;;;;;5053966;28;20200;-62
2024/01/28 04:46:37;;;;;;;22.27;12.33;;;-1.30;99.90;;;;;;5055055;28;20196;-62
2024/01/28 04:49:05;;;;;;;21.23;11.83;;;-1.30;99.90;;;;;;5054440;28;20224;-62
2024/01/28 04:51:34;;;;;;;26.83;10.80;;;-1.30;99.90;;;;;;5048377;28;20231;-62
2024/01/28 04:54:02;;;;;;;23.30;11.17;;;-1.40;99.90;;;;;;5053207;28;20267;-62
2024/01/28 04:56:31;;;;;;;22.73;10.87;;;-1.40;99.90;;;;;;5048480;28;20248;-62
2024/01/28 04:59:04;;;;;;;20.20;10.47;;;-1.50;99.90;;;;;;5046056;28;20196;-62
2024/01/28 05:01:33;;;;;;;19.53;10.20;;;-1.50;99.90;;;;;;5052791;28;20567;-62
2024/01/28 05:04:01;;;;;;;21.93;10.23;;;-1.50;99.90;;;;;;5052938;28;20220;-62
2024/01/28 05:06:34;;;;;;;27.00;11.00;;;-1.40;99.90;;;;;;5051360;28;20315;-62
2024/01/28 05:09:03;;;;;;;23.10;11.20;;;-1.50;99.90;;;;;;5052177;28;20319;-62
2024/01/28 05:11:32;;;;;;;25.87;11.03;;;-1.40;99.90;;;;;;5051611;28;20231;-62
2024/01/28 05:14:02;;;;;;;23.53;12.57;;;-1.40;99.90;;;;;;5052484;28;20528;-62
2024/01/28 05:16:30;;;;;;;26.00;11.03;;;-1.40;99.90;;;;;;5046054;28;20219;-64
2024/01/28 05:19:01;;;;;;;23.63;11.53;;;-1.40;99.90;;;;;;5051166;28;20311;-62
2024/01/28 05:21:29;;;;;;;22.63;10.77;;;-1.50;99.90;;;;;;5053252;28;20690;-61
2024/01/28 05:23:58;;;;;;;23.60;11.20;;;-1.60;99.90;;;;;;5043694;28;20225;-61
2024/01/28 05:26:26;;;;;;;20.10;10.97;;;-1.60;99.90;;;;;;5053463;28;20230;-62
2024/01/28 05:28:54;;;;;;;17.97;11.23;;;-1.60;99.90;;;;;;5053431;28;20243;-62
2024/01/28 05:31:24;;;;;;;31.27;12.00;;;-1.60;99.90;;;;;;5041044;28;20231;-62
2024/01/28 05:33:52;;;;;;;25.33;11.93;;;-1.60;99.90;;;;;;5049572;28;20224;-62
2024/01/28 05:36:21;;;;;;;18.00;11.03;;;-1.50;99.90;;;;;;5053677;28;20229;-62
2024/01/28 05:38:49;;;;;;;24.67;11.83;;;-1.50;99.90;;;;;;5057785;28;20232;-62
2024/01/28 05:41:17;;;;;;;20.60;11.50;;;-1.50;99.90;;;;;;5046345;28;20197;-62
2024/01/28 05:43:45;;;;;;;29.13;13.13;;;-1.50;99.90;;;;;;5053341;28;20311;-62
2024/01/28 05:46:15;;;;;;;29.20;12.50;;;-1.50;99.90;;;;;;5042245;28;20209;-61
2024/01/28 05:48:45;;;;;;;27.53;11.50;;;-1.40;99.90;;;;;;5049376;28;20216;-62
2024/01/28 05:51:14;;;;;;;20.60;10.77;;;-1.30;99.90;;;;;;5049485;28;20262;-62
2024/01/28 05:53:42;;;;;;;30.57;11.93;;;-1.30;99.90;;;;;;5049644;28;20220;-62
2024/01/28 05:56:11;;;;;;;24.57;11.10;;;-1.30;99.90;;;;;;5047931;28;20213;-62
2024/01/28 05:58:39;;;;;;;20.93;11.40;;;-1.40;99.90;;;;;;5057394;28;20640;-62
2024/01/28 06:01:08;;;;;;;23.80;11.30;;;-1.40;99.90;;;;;;5053006;28;20224;-62
2024/01/28 06:03:37;;;;;;;23.73;11.53;;;-1.50;99.90;;;;;;5046935;28;20236;-62
2024/01/28 06:06:07;;;;;;;16.57;10.57;;;-1.50;99.90;;;;;;5044608;28;20236;-62
2024/01/28 06:08:35;;;;;;;25.10;11.43;;;-1.50;99.90;;;;;;5043523;28;20304;-62
2024/01/28 06:11:04;;;;;;;21.43;10.40;;;-1.60;99.90;;;;;;5050258;28;20200;-62
2024/01/28 06:13:32;;;;;;;19.20;9.67;;;-1.60;99.90;;;;;;5052875;28;20750;-62
2024/01/28 06:16:00;;;;;;;20.93;10.70;;;-1.60;99.90;;;;;;5052384;28;20231;-62
2024/01/28 06:18:28;;;;;;;17.67;10.20;;;-1.50;99.90;;;;;;5052523;28;20714;-62
2024/01/28 06:20:57;;;;;;;19.93;10.63;;;-1.60;99.90;;;;;;5051682;28;20224;-62
2024/01/28 06:23:26;;;;;;;18.17;10.30;;;-1.60;99.90;;;;;;5051267;28;20208;-62
2024/01/28 06:25:55;;;;;;;17.97;10.43;;;-1.70;99.90;;;;;;5050386;28;20332;-62
2024/01/28 06:28:23;;;;;;;17.67;9.60;;;-1.70;99.90;;;;;;5049367;28;20225;-62
2024/01/28 06:30:51;;;;;;;17.43;10.40;;;-1.70;99.90;;;;;;5048906;28;20299;-62
2024/01/28 06:33:19;;;;;;;21.13;11.37;;;-1.80;99.90;;;;;;5041482;28;20212;-62
2024/01/28 06:35:47;;;;;;;20.50;10.63;;;-1.80;99.90;;;;;;5041334;28;20234;-62
2024/01/28 06:38:16;;;;;;;20.80;10.70;;;-1.90;99.90;;;;;;5047248;28;20207;-62
2024/01/28 06:40:45;;;;;;;23.00;11.23;;;-1.90;99.90;;;;;;5050300;28;20762;-62
2024/01/28 06:43:13;;;;;;;21.90;11.10;;;-1.90;99.90;;;;;;5047700;28;20217;-62
2024/01/28 06:45:45;;;;;;;23.50;10.87;;;-1.90;99.90;;;;;;5049229;28;20306;-62
2024/01/28 06:48:14;;;;;;;21.07;11.50;;;-1.90;99.90;;;;;;5047224;28;20267;-62
2024/01/28 06:50:43;;;;;;;23.60;11.03;;;-1.90;99.90;;;;;;5045493;28;20224;-62
2024/01/28 06:53:11;;;;;;;22.80;11.70;;;-1.90;99.90;;;;;;5046215;28;20197;-62
2024/01/28 06:55:41;;;;;;;21.03;11.83;;;-1.90;99.90;;;;;;5047488;28;20263;-62
2024/01/28 06:58:11;;;;;;;20.00;11.33;;;-1.90;99.90;;;;;;5047172;28;20217;-62
2024/01/28 07:00:39;;;;;;;20.80;11.17;;;-2.00;99.90;;;;;;5051073;28;20220;-62
2024/01/28 07:03:07;;;;;;;21.10;11.13;;;-2.00;99.90;;;;;;5045418;28;20224;-62
2024/01/28 07:05:36;;;;;;;23.43;11.97;;;-2.00;99.90;;;;;;5051552;28;20255;-62
2024/01/28 07:08:07;;;;;;;23.60;11.40;;;-2.00;99.90;;;;;;5050669;28;20251;-62
2024/01/28 07:10:36;;;;;;;18.23;10.27;;;-2.00;99.90;;;;;;5047010;28;20399;-62
2024/01/28 07:13:04;;;;;;;28.47;11.70;;;-2.00;99.90;;;;;;5051252;28;20664;-62
2024/01/28 07:15:34;;;;;;;22.23;11.87;;;-2.10;99.90;;;;;;5040939;28;20280;-62
2024/01/28 07:18:02;;;;;;;27.77;12.07;;;-2.00;99.90;;;;;;5047981;28;20225;-62
2024/01/28 07:20:31;;;;;;;20.87;10.73;;;-2.00;99.90;;;;;;5050711;28;20224;-62
2024/01/28 07:22:59;;;;;;;21.30;11.23;;;-2.00;99.90;;;;;;5036335;28;20196;-62
2024/01/28 07:25:27;;;;;;;21.30;11.27;;;-2.10;99.90;;;;;;5050245;28;20217;-62
2024/01/28 07:27:56;;;;;;;19.73;10.87;;;-2.10;99.90;;;;;;5050477;28;20227;-62
2024/01/28 07:30:24;;;;;;;19.00;11.33;;;-2.10;99.90;;;;;;5003489;28;20222;-62
2024/01/28 07:32:53;;;;;;;21.90;11.17;;;-2.10;99.90;;;;;;5008617;28;20226;-62
2024/01/28 07:35:22;;;;;;;23.10;11.77;;;-2.10;99.90;;;;;;5008966;28;20198;-62
2024/01/28 07:37:50;;;;;;;19.67;11.30;;;-2.10;99.90;;;;;;5012625;28;20281;-62
2024/01/28 07:40:19;;;;;;;18.30;11.20;;;-2.10;99.90;;;;;;5002925;28;20229;-62
2024/01/28 07:42:47;;;;;;;22.27;11.20;;;-2.10;99.90;;;;;;5004161;28;20709;-62
2024/01/28 07:45:15;;;;;;;19.63;10.90;;;-2.00;99.90;;;;;;5010707;28;20743;-62
2024/01/28 07:47:44;;;;;;;22.87;10.77;;;-2.10;99.90;;;;;;5013272;28;20221;-62
2024/01/28 07:50:13;;;;;;;25.57;11.00;;;-2.10;99.90;;;;;;5015241;28;20195;-62
2024/01/28 07:52:43;;;;;;;20.80;10.80;;;-2.00;99.90;;;;;;5007047;28;20199;-62
2024/01/28 07:55:12;;;;;;;23.23;11.57;;;-2.00;99.90;;;;;;5013247;28;20636;-62
2024/01/28 07:57:43;;;;;;;21.90;11.80;;;-1.90;99.90;;;;;;5000166;28;20235;-62
2024/01/28 08:00:13;;;;;;;19.70;10.70;;;-1.90;99.90;;;;;;5010307;28;20224;-62
2024/01/28 08:02:41;;;;;;;24.50;10.87;;;-1.90;99.90;;;;;;5007065;28;20227;-62
2024/01/28 08:05:10;;;;;;;21.07;11.10;;;-1.90;99.90;;;;;;5008698;28;20206;-62
2024/01/28 08:07:40;;;;;;;18.60;11.20;;;-1.80;99.90;;;;;;5010824;28;20281;-63
2024/01/28 08:10:09;;;;;;;19.03;10.87;;;-1.80;99.90;;;;;;5010446;28;20222;-62
2024/01/28 08:12:37;;;;;;;20.60;11.33;;;-1.80;99.90;;;;;;5011856;28;20288;-63
2024/01/28 08:15:06;;;;;;;21.67;11.23;;;-1.70;99.90;;;;;;5014676;28;20245;-63
2024/01/28 08:17:35;;;;;;;17.97;11.13;;;-1.60;99.90;;;;;;5013986;28;20225;-62
2024/01/28 08:20:05;;;;;;;27.23;11.37;;;-1.60;99.90;;;;;;5009690;28;20725;-62
2024/01/28 08:22:33;;;;;;;18.07;11.37;;;-1.50;99.90;;;;;;5010741;28;20226;-63
2024/01/28 08:25:03;;;;;;;23.97;13.13;;;-1.50;99.90;;;;;;5014607;28;20229;-62
2024/01/28 08:27:31;;;;;;;21.37;12.07;;;-1.40;99.90;;;;;;5010808;28;20720;-62
2024/01/28 08:30:00;;;;;;;22.13;12.47;;;-1.30;99.90;;;;;;5046044;28;20216;-62
2024/01/28 08:32:28;;;;;;;25.63;12.93;;;-1.10;99.90;;;;;;5050511;28;20254;-63
2024/01/28 08:34:56;;;;;;;20.00;12.67;;;-1.00;99.90;;;;;;5048881;28;20267;-63
2024/01/28 08:37:24;;;;;;;25.87;13.27;;;-1.00;99.90;;;;;;5047857;28;20208;-63
2024/01/28 08:39:52;;;;;;;20.73;12.70;;;-0.90;99.90;;;;;;5045496;28;20216;-63
2024/01/28 08:42:22;;;;;;;22.03;12.20;;;-0.90;99.90;;;;;;5047800;28;20235;-63
2024/01/28 08:44:50;;;;;;;29.13;13.93;;;-0.80;99.90;;;;;;5052030;28;20247;-63
2024/01/28 08:47:18;;;;;;;25.20;12.87;;;-0.80;99.90;;;;;;5051363;28;20200;-63
2024/01/28 08:49:48;;;;;;;30.67;14.13;;;-0.70;99.90;;;;;;5051591;28;20197;-63
2024/01/28 08:52:17;;;;;;;27.17;14.00;;;-0.50;99.90;;;;;;5050648;28;20212;-63
2024/01/28 08:54:46;;;;;;;25.13;13.70;;;-0.40;99.90;;;;;;5064536;28;20304;-63
2024/01/28 08:57:18;;;;;;;27.73;14.70;;;-0.30;99.90;;;;;;5051136;28;20213;-63
2024/01/28 08:59:48;;;;;;;28.07;12.83;;;-0.20;99.90;;;;;;5052726;28;20227;-63
2024/01/28 09:02:16;;;;;;;18.97;12.10;;;0.00;99.90;;;;;;5051889;28;20547;-63
2024/01/28 09:04:44;;;;;;;26.07;13.67;;;0.20;99.90;;;;;;5048129;28;20221;-63
2024/01/28 09:07:13;;;;;;;19.60;10.80;;;0.40;99.90;;;;;;5046795;28;20291;-63
2024/01/28 09:09:41;;;;;;;36.73;20.33;;;0.70;99.90;;;;;;5047562;28;20217;-63
2024/01/28 09:12:09;;;;;;;20.53;12.17;;;1.00;99.90;;;;;;5051362;28;20208;-63
2024/01/28 09:14:38;;;;;;;19.47;10.30;;;1.30;99.90;;;;;;5051844;28;20231;-63
2024/01/28 09:17:08;;;;;;;16.13;9.20;;;1.40;99.90;;;;;;5048138;28;20662;-62
2024/01/28 09:19:36;;;;;;;26.83;16.17;;;1.60;99.90;;;;;;5049848;28;20189;-63
2024/01/28 09:22:05;;;;;;;20.60;9.27;;;1.80;99.90;;;;;;5047145;28;20592;-63
2024/01/28 09:24:33;;;;;;;19.07;10.80;;;1.90;99.90;;;;;;5049331;28;20733;-63
2024/01/28 09:27:02;;;;;;;21.10;12.90;;;1.90;99.90;;;;;;5048510;28;20676;-63
2024/01/28 09:29:30;;;;;;;14.20;9.27;;;2.00;99.90;;;;;;5047679;28;20586;-63
2024/01/28 09:31:59;;;;;;;14.17;9.63;;;2.20;99.90;;;;;;5048740;28;20197;-63
2024/01/28 09:34:29;;;;;;;15.10;9.63;;;2.40;99.90;;;;;;5049688;28;20227;-63
2024/01/28 09:36:57;;;;;;;18.90;9.37;;;2.70;99.90;;;;;;5046036;28;20219;-63
2024/01/28 09:39:28;;;;;;;14.60;8.27;;;2.90;99.90;;;;;;5047579;28;20870;-63
2024/01/28 09:42:08;;;;;;;11.53;7.60;;;3.10;99.90;;;;;;5040973;28;20225;-63
2024/01/28 09:44:37;;;;;;;13.80;9.37;;;3.30;99.90;;;;;;5038483;28;20770;-63
2024/01/28 09:47:06;;;;;;;13.13;7.27;;;3.40;99.90;;;;;;5049037;28;20630;-63
2024/01/28 09:49:39;;;;;;;20.77;8.77;;;3.60;99.90;;;;;;5044553;28;20235;-63
2024/01/28 09:52:10;;;;;;;17.33;7.83;;;3.80;99.90;;;;;;5043502;28;20691;-63
2024/01/28 09:54:39;;;;;;;13.43;7.40;;;4.00;99.90;;;;;;5044094;28;20236;-63
2024/01/28 09:57:07;;;;;;;13.70;7.40;;;4.10;99.90;;;;;;5045006;28;20582;-63
2024/01/28 09:59:36;;;;;;;13.30;7.10;;;4.30;99.90;;;;;;5044326;28;20332;-63
2024/01/28 10:02:06;;;;;;;11.00;7.17;;;4.40;99.90;;;;;;5047070;28;20193;-62
2024/01/28 10:04:36;;;;;;;12.80;6.60;;;4.60;99.90;;;;;;5040990;28;20231;-62
2024/01/28 10:07:07;;;;;;;11.20;6.40;;;4.80;99.90;;;;;;5041551;28;20232;-62
2024/01/28 10:09:35;;;;;;;12.13;7.50;;;5.00;96.10;;;;;;5045521;28;20215;-63
2024/01/28 10:12:05;;;;;;;13.20;6.80;;;5.00;92.60;;;;;;5041166;28;20826;-62
2024/01/28 10:14:33;;;;;;;14.73;6.60;;;5.10;92.00;;;;;;5048408;28;20307;-63
2024/01/28 10:17:02;;;;;;;10.37;6.33;;;5.30;93.70;;;;;;5049410;28;20204;-63
2024/01/28 10:19:30;;;;;;;9.20;6.50;;;5.40;86.90;;;;;;5040766;28;20216;-63
2024/01/28 10:22:00;;;;;;;19.03;7.13;;;5.60;89.30;;;;;;5038367;28;20221;-63
2024/01/28 10:24:28;;;;;;;10.73;6.63;;;5.90;85.10;;;;;;5039808;28;20580;-62
2024/01/28 10:26:58;;;;;;;9.23;6.03;;;6.20;74.40;;;;;;5037760;28;20224;-62
2024/01/28 10:29:28;;;;;;;18.70;6.13;;;6.30;60.50;;;;;;5045030;28;21010;-62
2024/01/28 10:32:01;;;;;;;9.23;6.20;;;6.50;60.00;;;;;;5042820;28;20181;-63
2024/01/28 10:34:29;;;;;;;10.57;5.77;;;6.40;38.90;;;;;;5046456;28;20222;-62
2024/01/28 10:37:01;;;;;;;11.50;6.40;;;6.50;47.20;;;;;;5041247;28;20620;-63
2024/01/28 10:39:34;;;;;;;12.13;7.10;;;6.60;99.90;;;;;;5039264;28;20225;-63
2024/01/28 10:42:08;;;;;;;10.27;6.20;;;6.40;99.90;;;;;;5046091;28;20620;-62
2024/01/28 10:44:57;;;;;;;12.23;6.63;;;6.50;99.90;;;;;;5039885;28;20229;-63
2024/01/28 10:47:33;;;;;;;10.90;6.13;;;6.50;99.90;;;;;;5042801;28;20230;-63
2024/01/28 10:50:07;;;;;;;9.00;6.10;;;6.50;99.90;;;;;;5045007;28;20193;-63
2024/01/28 10:52:38;;;;;;;9.83;5.73;;;6.50;99.90;;;;;;5046830;28;20216;-63
2024/01/28 10:55:07;;;;;;;10.87;6.00;;;6.50;99.90;;;;;;5048231;28;20235;-62
2024/01/28 10:57:37;;;;;;;14.20;6.00;;;6.60;99.90;;;;;;5044824;28;20224;-63
2024/01/28 11:00:20;;;;;;;13.13;6.30;;;6.50;99.90;;;;;;5061406;28;20228;-63
2024/01/28 11:02:50;;;;;;;11.13;6.13;;;6.70;99.90;;;;;;5042247;28;20673;-63
2024/01/28 11:05:19;;;;;;;15.73;6.27;;;6.80;99.90;;;;;;5042538;28;20201;-63
2024/01/28 11:07:50;;;;;;;10.47;6.20;;;6.90;99.90;;;;;;5047535;28;20184;-63
2024/01/28 11:10:18;;;;;;;10.30;5.97;;;6.90;99.90;;;;;;5043808;28;20213;-63
2024/01/28 11:12:47;;;;;;;9.33;5.83;;;7.10;99.90;;;;;;5040978;28;20228;-63
2024/01/28 11:15:15;;;;;;;8.23;5.50;;;7.10;99.90;;;;;;5046838;28;20216;-63
2024/01/28 11:17:44;;;;;;;9.33;6.60;;;7.20;99.90;;;;;;5043884;28;20296;-63
2024/01/28 11:20:16;;;;;;;6.43;5.63;;;7.30;99.90;;;;;;5047259;28;20258;-63
2024/01/28 11:22:51;;;;;;;9.57;5.30;;;7.40;99.90;;;;;;5046215;28;20658;-63
2024/01/28 11:25:21;;;;;;;10.23;5.47;;;7.70;99.90;;;;;;5047066;28;20694;-63
2024/01/28 11:27:51;;;;;;;11.73;5.73;;;7.80;99.90;;;;;;5046602;28;20244;-63
2024/01/28 11:30:21;;;;;;;8.47;5.80;;;8.00;99.90;;;;;;5038348;28;20224;-63
2024/01/28 11:32:52;;;;;;;17.60;8.33;;;8.10;99.90;;;;;;5045884;28;20228;-63
2024/01/28 11:35:21;;;;;;;9.20;5.00;;;8.30;99.90;;;;;;5043590;28;20182;-63
2024/01/28 11:37:55;;;;;;;9.50;4.87;;;8.30;99.90;;;;;;5048533;28;20197;-63
2024/01/28 11:40:29;;;;;;;8.20;5.30;;;8.30;99.90;;;;;;5046245;28;20224;-63
2024/01/28 11:42:59;;;;;;;10.23;5.17;;;8.40;99.90;;;;;;5045185;28;20721;-63
2024/01/28 11:45:27;;;;;;;7.83;5.50;;;8.50;99.90;;;;;;5044881;28;20217;-63
2024/01/28 11:47:55;;;;;;;10.40;5.40;;;8.70;99.90;;;;;;5045204;28;20675;-63
2024/01/28 11:50:23;;;;;;;7.73;5.50;;;8.80;99.90;;;;;;5044100;28;20185;-63
2024/01/28 11:52:53;;;;;;;9.30;5.00;;;9.00;99.90;;;;;;5046823;28;20192;-63
2024/01/28 11:55:21;;;;;;;7.17;5.40;;;9.10;99.90;;;;;;5044134;28;20274;-62
2024/01/28 11:57:50;;;;;;;6.50;5.10;;;8.90;99.90;;;;;;5038675;28;20227;-63
2024/01/28 12:00:19;;;;;;;7.53;5.40;;;8.80;99.90;;;;;;5045790;28;20299;-63
2024/01/28 12:02:48;;;;;;;9.13;5.50;;;8.90;99.90;;;;;;5046932;28;20259;-64
2024/01/28 12:05:17;;;;;;;8.67;5.60;;;9.10;99.90;;;;;;5041337;28;20181;-64
2024/01/28 12:07:47;;;;;;;7.87;5.50;;;9.10;99.90;;;;;;5042489;28;20793;-63
2024/01/28 12:10:17;;;;;;;8.53;5.03;;;9.20;99.90;;;;;;5044004;28;20216;-62
2024/01/28 12:12:50;;;;;;;11.83;5.50;;;9.40;99.90;;;;;;5044228;28;20228;-63
2024/01/28 12:15:22;;;;;;;8.57;5.53;;;9.60;99.90;;;;;;5043711;28;20231;-62
2024/01/28 12:17:52;;;;;;;6.63;5.03;;;9.80;99.90;;;;;;5041098;28;20244;-63
2024/01/28 12:20:28;;;;;;;11.23;5.17;;;9.80;99.90;;;;;;5042966;28;20229;-62
2024/01/28 12:22:57;;;;;;;9.80;5.40;;;9.80;99.90;;;;;;5046616;28;20280;-63
2024/01/28 12:25:31;;;;;;;7.57;5.67;;;10.00;99.90;;;;;;5045397;28;20413;-63
2024/01/28 12:28:02;;;;;;;9.93;7.97;;;10.10;99.90;;;;;;5045932;28;20223;-62
2024/01/28 12:30:40;;;;;;;6.17;4.87;;;10.30;99.90;;;;;;5043427;28;20221;-62
2024/01/28 12:33:14;;;;;;;6.53;5.07;;;10.50;99.90;;;;;;5046150;28;20228;-64
2024/01/28 12:35:43;;;;;;;5.87;4.93;;;10.60;99.90;;;;;;5041924;28;20706;-63
2024/01/28 12:38:15;;;;;;;6.77;4.60;;;10.70;99.90;;;;;;5023694;28;20205;-62
2024/01/28 12:40:46;;;;;;;11.27;6.03;;;10.80;99.90;;;;;;5059853;28;20194;-63
2024/01/28 12:43:20;;;;;;;7.30;4.50;;;10.90;99.90;;;;;;5046066;28;20217;-63